Revelstoke, Canada
Current Conditions -  °F | °C
As of 6:13 PM on Sunday 25 Jan 2015 (Local Time) from CYRV Reporting Station
Haze Haze  
Wind Chill: 34°   Ceiling: 700
Heat Index: 34°   Visibility: 2.2mi
Dew Point: 34°   Wind: 2mph
Humidity: 100%   Direction: NA
Pressure: 30.2"   Gusts: NA
Location:  51.01°N, 118.21°W
Report Text: CYRV 260213Z AUTO VRB02KT 2 1/4SM BR OVC007 01/01 A3020 RMK SLP248
Loading
Personal Weather Stations






























Interactive Weather Map New forecast layout! Learn more

10-Day Weather Forecast

Advertisements
Track Severe Weather on mobile